createdAt,value
2018-11-13T00:02:44.884Z,1.77
2018-11-13T00:07:48.156Z,1.70
2018-11-13T00:12:51.432Z,1.70
2018-11-13T00:17:54.854Z,1.82
2018-11-13T00:22:58.144Z,1.90
2018-11-13T00:28:01.394Z,1.70
2018-11-13T00:33:05.177Z,1.47
2018-11-13T00:38:08.448Z,1.52
2018-11-13T00:43:11.734Z,1.62
2018-11-13T00:48:15.010Z,1.65
2018-11-13T00:53:18.288Z,1.55
2018-11-13T00:58:21.592Z,1.85
2018-11-13T01:03:24.913Z,1.30
2018-11-13T01:08:28.164Z,1.55
2018-11-13T01:13:31.441Z,2.00
2018-11-13T01:18:34.702Z,1.50
2018-11-13T01:23:38.033Z,1.50
2018-11-13T01:28:41.436Z,1.45
2018-11-13T01:33:45.249Z,1.80
2018-11-13T01:38:48.877Z,1.45
2018-11-13T01:43:52.495Z,1.60
2018-11-13T01:48:58.618Z,1.72
2018-11-13T01:54:02.483Z,1.40
2018-11-13T01:59:05.956Z,1.60
2018-11-13T02:04:10.134Z,1.85
2018-11-13T02:09:13.396Z,1.37
2018-11-13T02:14:17.301Z,1.70
2018-11-13T02:19:20.997Z,1.50
2018-11-13T02:24:24.744Z,1.80
2018-11-13T02:29:29.400Z,1.55
2018-11-13T02:34:32.969Z,1.30
2018-11-13T02:39:36.321Z,1.42
2018-11-13T02:44:39.948Z,1.42
2018-11-13T02:49:43.500Z,1.60
2018-11-13T02:54:47.143Z,1.50
2018-11-13T02:59:50.560Z,1.37
2018-11-13T03:04:54.072Z,1.50
2018-11-13T03:09:57.411Z,1.40
2018-11-13T03:15:00.769Z,1.72
2018-11-13T03:20:05.714Z,1.40
2018-11-13T03:25:14.145Z,1.22
2018-11-13T03:30:21.114Z,1.37
2018-11-13T03:35:25.971Z,1.60
2018-11-13T03:40:29.328Z,1.87
2018-11-13T03:45:32.941Z,1.40
2018-11-13T03:50:36.284Z,1.30
2018-11-13T03:55:40.025Z,1.30
2018-11-13T04:00:43.548Z,1.42
2018-11-13T04:05:47.165Z,1.35
2018-11-13T04:10:51.353Z,1.42
2018-11-13T04:15:54.804Z,1.32
2018-11-13T04:20:58.095Z,1.50
2018-11-13T04:26:01.352Z,1.50
2018-11-13T04:31:04.721Z,1.22
2018-11-13T04:36:08.053Z,1.50
2018-11-13T04:41:12.141Z,1.50
2018-11-13T04:46:15.383Z,1.37
2018-11-13T04:51:18.655Z,1.50
2018-11-13T04:56:21.919Z,1.30
2018-11-13T05:01:25.182Z,1.62
2018-11-13T05:06:28.505Z,1.30
2018-11-13T05:11:31.770Z,1.40
2018-11-13T05:16:35.021Z,1.47
2018-11-13T05:21:38.276Z,1.25
2018-11-13T05:26:41.524Z,1.40
2018-11-13T05:31:44.865Z,1.25
2018-11-13T05:36:48.110Z,1.42
2018-11-13T05:41:51.437Z,1.00
2018-11-13T05:46:54.625Z,1.30
2018-11-13T05:51:57.879Z,1.37
2018-11-13T05:57:01.129Z,1.12
2018-11-13T06:02:04.448Z,1.42
2018-11-13T06:07:07.744Z,1.50
2018-11-13T06:12:10.997Z,1.20
2018-11-13T06:17:14.360Z,1.10
2018-11-13T06:22:17.708Z,1.20
2018-11-13T06:27:21.133Z,1.35
2018-11-13T06:32:24.413Z,1.52
2018-11-13T06:37:27.653Z,1.50
2018-11-13T06:42:30.896Z,1.50
2018-11-13T06:47:34.136Z,1.30
2018-11-13T06:52:37.368Z,1.20
2018-11-13T06:57:40.623Z,1.60
2018-11-13T07:02:43.875Z,1.40
2018-11-13T07:07:47.457Z,1.25
2018-11-13T07:12:51.540Z,1.27
2018-11-13T07:17:57.310Z,1.10
2018-11-13T07:23:00.600Z,1.25
2018-11-13T07:28:03.882Z,1.47
2018-11-13T07:33:07.124Z,2.00
2018-11-13T07:38:10.360Z,2.67
2018-11-13T07:43:13.660Z,3.00
2018-11-13T07:48:16.897Z,3.08
2018-11-13T07:53:20.202Z,3.37
2018-11-13T07:58:23.464Z,2.60
2018-11-13T08:03:40.628Z,2.47
2018-11-13T08:08:43.832Z,3.00
2018-11-13T08:13:47.080Z,2.60
2018-11-13T08:18:50.369Z,2.35
2018-11-13T08:23:53.601Z,2.05
2018-11-13T08:28:57.006Z,2.65
2018-11-13T08:34:00.197Z,2.50
2018-11-13T08:39:04.532Z,2.40
2018-11-13T08:44:08.361Z,2.67
2018-11-13T08:49:11.581Z,2.33
2018-11-13T08:54:14.834Z,2.17
2018-11-13T08:59:18.185Z,2.58
2018-11-13T09:04:21.354Z,2.33
2018-11-13T09:09:24.610Z,2.40
2018-11-13T09:14:27.849Z,2.58
2018-11-13T09:19:32.199Z,2.27
2018-11-13T09:24:35.411Z,2.35
2018-11-13T09:29:38.658Z,2.60
2018-11-13T09:34:41.965Z,2.10
2018-11-13T09:39:45.210Z,2.17
2018-11-13T09:44:48.510Z,2.15
2018-11-13T09:49:51.745Z,2.47
2018-11-13T09:54:55.070Z,2.08
2018-11-13T09:59:58.363Z,2.42
2018-11-13T10:05:02.386Z,2.10
2018-11-13T10:10:07.096Z,1.78
2018-11-13T10:15:12.821Z,2.15
2018-11-13T10:20:16.804Z,2.40
2018-11-13T10:25:20.452Z,2.20
2018-11-13T10:30:24.635Z,2.40
2018-11-13T10:35:27.889Z,2.22
2018-11-13T10:40:31.267Z,2.07
2018-11-13T10:45:34.404Z,1.87
2018-11-13T10:50:37.649Z,1.85
2018-11-13T10:55:40.894Z,2.12
2018-11-13T11:00:49.596Z,1.70
2018-11-13T11:05:53.125Z,1.70
2018-11-13T11:10:56.408Z,1.87
2018-11-13T11:15:59.640Z,1.80
2018-11-13T11:21:03.053Z,1.62
2018-11-13T11:26:06.948Z,1.92
2018-11-13T11:31:10.238Z,2.02
2018-11-13T11:36:13.477Z,2.00
2018-11-13T11:41:16.807Z,1.92
2018-11-13T11:46:20.045Z,2.02
2018-11-13T11:51:23.284Z,1.70
2018-11-13T11:56:26.515Z,1.80
2018-11-13T12:01:29.769Z,2.08
2018-11-13T12:06:33.028Z,1.92
2018-11-13T12:11:36.400Z,1.77
2018-11-13T12:16:39.698Z,1.80
2018-11-13T12:21:43.061Z,1.75
2018-11-13T12:26:46.312Z,1.70
2018-11-13T12:31:49.564Z,1.80
2018-11-13T12:36:52.805Z,1.45
2018-11-13T12:41:56.048Z,1.85
2018-11-13T12:46:59.297Z,2.22
2018-11-13T12:52:07.925Z,1.40
2018-11-13T12:57:11.165Z,2.47
2018-11-13T13:02:14.432Z,1.52
2018-11-13T13:07:17.682Z,1.67
2018-11-13T13:12:20.928Z,1.70
2018-11-13T13:17:24.177Z,1.40
2018-11-13T13:22:27.507Z,1.70
2018-11-13T13:27:30.702Z,1.72
2018-11-13T13:32:33.937Z,1.77
2018-11-13T13:37:37.192Z,1.40
2018-11-13T13:42:40.483Z,1.37
2018-11-13T13:47:43.725Z,1.30
2018-11-13T13:52:46.976Z,1.47
2018-11-13T13:57:50.408Z,1.05
2018-11-13T14:02:53.648Z,1.20
2018-11-13T14:07:57.029Z,1.30
2018-11-13T14:13:01.170Z,1.60
2018-11-13T14:18:04.481Z,1.57
2018-11-13T14:23:07.749Z,1.20
2018-11-13T14:28:10.988Z,1.25
2018-11-13T14:33:14.285Z,1.20
2018-11-13T14:38:17.521Z,1.30
2018-11-13T14:43:20.780Z,1.65
2018-11-13T14:48:24.024Z,1.45
2018-11-13T14:53:27.293Z,1.45
2018-11-13T14:58:30.604Z,1.20
2018-11-13T15:03:33.836Z,1.67
2018-11-13T15:08:37.109Z,1.25
2018-11-13T15:13:40.404Z,1.12
2018-11-13T15:18:43.656Z,1.37
2018-11-13T15:23:46.901Z,0.90
2018-11-13T15:28:50.153Z,1.02
2018-11-13T15:33:53.461Z,0.95
2018-11-13T15:38:56.710Z,0.98
2018-11-13T15:44:00.041Z,0.98
2018-11-13T15:49:03.280Z,0.68
2018-11-13T15:54:06.668Z,0.65
2018-11-13T15:59:09.960Z,0.65
2018-11-13T16:04:13.180Z,0.70
2018-11-13T16:09:16.432Z,1.00
2018-11-13T16:14:19.675Z,0.70
2018-11-13T16:19:22.929Z,0.80
2018-11-13T16:24:26.174Z,0.85
2018-11-13T16:29:29.465Z,0.80
2018-11-13T16:34:32.801Z,0.68
2018-11-13T16:39:36.182Z,0.93
2018-11-13T16:44:39.827Z,0.70
2018-11-13T16:49:43.537Z,0.70
2018-11-13T16:54:49.992Z,0.88
2018-11-13T16:59:53.570Z,0.75
2018-11-13T17:04:56.951Z,0.68
2018-11-13T17:10:00.528Z,0.60
2018-11-13T17:15:04.125Z,0.62
2018-11-13T17:20:08.651Z,0.90
2018-11-13T17:25:13.320Z,0.90
2018-11-13T17:30:19.992Z,0.90
2018-11-13T17:35:24.560Z,0.67
2018-11-13T17:40:34.117Z,0.93
2018-11-13T17:45:40.496Z,1.20
2018-11-13T17:50:44.112Z,0.90
2018-11-13T17:55:47.368Z,0.57
2018-11-13T18:00:50.824Z,0.60
2018-11-13T18:05:54.109Z,0.60
2018-11-13T18:10:57.412Z,0.82
2018-11-13T18:16:00.746Z,0.82
2018-11-13T18:21:03.956Z,0.80
2018-11-13T18:26:07.245Z,1.45
2018-11-13T18:31:10.496Z,0.70
2018-11-13T18:36:13.737Z,0.50
2018-11-13T18:41:16.994Z,1.12
2018-11-13T18:46:20.353Z,0.70
2018-11-13T18:51:23.627Z,0.95
2018-11-13T18:56:26.887Z,0.50
2018-11-13T19:01:30.217Z,0.68
2018-11-13T19:06:33.458Z,0.88
2018-11-13T19:11:37.108Z,0.68
2018-11-13T19:16:40.456Z,0.93
2018-11-13T19:21:44.638Z,0.60
2018-11-13T19:26:47.924Z,0.90
2018-11-13T19:31:51.280Z,0.55
2018-11-13T19:36:54.626Z,0.60
2018-11-13T19:41:57.864Z,0.50
2018-11-13T19:47:01.133Z,0.60
2018-11-13T19:52:04.770Z,0.53
2018-11-13T19:57:08.315Z,0.40
2018-11-13T20:02:11.777Z,0.57
2018-11-13T20:07:15.086Z,0.60
2018-11-13T20:12:18.658Z,0.60
2018-11-13T20:17:21.909Z,0.62
2018-11-13T20:22:25.152Z,0.80
2018-11-13T20:27:28.461Z,0.45
2018-11-13T20:32:32.264Z,0.80
2018-11-13T20:37:35.643Z,0.78
2018-11-13T20:42:38.962Z,0.70
2018-11-13T20:47:42.204Z,0.68
2018-11-13T20:52:45.828Z,0.80
2018-11-13T20:57:49.208Z,0.53
2018-11-13T21:02:52.562Z,0.62
2018-11-13T21:07:56.006Z,0.60
2018-11-13T21:12:59.572Z,0.62
2018-11-13T21:18:03.458Z,0.60
2018-11-13T21:23:06.757Z,0.50
2018-11-13T21:28:10.093Z,0.62
2018-11-13T21:33:13.581Z,0.70
2018-11-13T21:38:17.440Z,0.53
2018-11-13T21:43:20.846Z,0.68
2018-11-13T21:48:24.204Z,0.53
2018-11-13T21:53:27.507Z,0.55
2018-11-13T21:58:30.804Z,0.57
2018-11-13T22:03:34.163Z,0.50
2018-11-13T22:08:37.435Z,0.50
2018-11-13T22:13:40.725Z,0.40
2018-11-13T22:18:43.989Z,0.40
2018-11-13T22:23:47.256Z,0.50
2018-11-13T22:28:50.798Z,0.60
2018-11-13T22:33:53.904Z,0.50
2018-11-13T22:38:57.232Z,0.40
2018-11-13T22:44:00.603Z,1.12
2018-11-13T22:49:03.969Z,0.53
2018-11-13T22:54:07.323Z,0.50
2018-11-13T22:59:10.665Z,0.53
2018-11-13T23:04:14.006Z,0.30
2018-11-13T23:09:17.313Z,0.50
2018-11-13T23:14:21.347Z,0.40
2018-11-13T23:19:24.721Z,0.35
2018-11-13T23:24:28.005Z,0.65
2018-11-13T23:29:31.279Z,0.62
2018-11-13T23:34:34.624Z,0.30
2018-11-13T23:39:37.901Z,0.40
2018-11-13T23:44:41.168Z,0.47
2018-11-13T23:49:44.705Z,0.50
2018-11-13T23:54:47.976Z,0.62
2018-11-13T23:59:51.692Z,0.55
